Time;durP1;ratioP1;P1;durP2;ratioP2;P2;SDS_P1;SDS_P2;PMS_P1;PMS_P2;Temp;Humidity;BMP_temperature;BMP_pressure;BME280_temperature;BME280_humidity;BME280_pressure;Samples;Min_cycle;Max_cycle;Signal;HPM_P1;HPM_P2
2022/04/18 00:02:10;;;;;;;2.33;1.93;;;8.40;56.30;8.50;96745.00;;;;5055936;28;20197;-80
2022/04/18 00:04:37;;;;;;;2.37;2.17;;;8.40;56.90;8.50;96745.00;;;;5055497;28;20228;-80
2022/04/18 00:07:05;;;;;;;1.97;1.73;;;8.30;56.30;8.50;96742.00;;;;5055590;28;20393;-82
2022/04/18 00:09:33;;;;;;;2.30;2.10;;;8.30;56.40;8.50;96746.00;;;;5047396;28;20203;-80
2022/04/18 00:12:00;;;;;;;2.50;2.30;;;8.30;56.30;8.50;96746.00;;;;5055689;28;20224;-80
2022/04/18 00:14:28;;;;;;;1.70;1.60;;;8.30;56.40;8.40;96749.00;;;;5055406;28;20629;-80
2022/04/18 00:16:56;;;;;;;2.30;2.10;;;8.30;56.30;8.40;96732.00;;;;5055296;28;20258;-81
2022/04/18 00:19:23;;;;;;;2.20;2.00;;;8.30;56.30;8.40;96725.00;;;;5055491;28;20193;-80
2022/04/18 00:21:51;;;;;;;2.03;1.93;;;8.30;56.30;8.40;96736.00;;;;5056540;28;20211;-80
2022/04/18 00:24:20;;;;;;;2.40;2.20;;;8.30;56.90;8.40;96732.00;;;;5057560;28;20235;-80
2022/04/18 00:26:48;;;;;;;2.50;1.90;;;8.30;56.40;8.40;96726.00;;;;5057303;28;20207;-80
2022/04/18 00:29:16;;;;;;;2.67;2.40;;;8.30;56.30;8.40;96729.00;;;;5057778;28;20201;-81
2022/04/18 00:31:44;;;;;;;2.07;1.97;;;8.20;56.40;8.30;96723.00;;;;5056688;28;20197;-80
2022/04/18 00:34:14;;;;;;;2.50;2.27;;;8.20;56.90;8.30;96725.00;;;;5056335;28;20225;-80
2022/04/18 00:36:41;;;;;;;2.10;2.00;;;8.20;56.40;8.30;96720.00;;;;5055133;28;20201;-81
2022/04/18 00:39:08;;;;;;;2.87;2.10;;;8.20;56.40;8.30;96721.00;;;;5054847;28;20576;-80
2022/04/18 00:41:35;;;;;;;2.07;1.97;;;8.20;56.50;8.20;96720.00;;;;5052235;28;20651;-82
2022/04/18 00:44:03;;;;;;;2.00;1.80;;;8.00;56.50;8.20;96715.00;;;;5060826;28;20207;-80
2022/04/18 00:46:30;;;;;;;1.80;1.70;;;8.10;56.60;8.20;96712.00;;;;5059144;28;20197;-82
2022/04/18 00:48:57;;;;;;;1.97;1.83;;;8.10;56.50;8.20;96716.00;;;;5056620;28;20196;-80
2022/04/18 00:51:27;;;;;;;2.33;2.10;;;8.10;56.70;8.20;96713.00;;;;5055930;28;20211;-81
2022/04/18 00:53:59;;;;;;;2.13;1.93;;;8.00;56.70;8.20;96713.00;;;;5041649;28;20228;-80
2022/04/18 00:56:27;;;;;;;2.00;1.80;;;8.00;56.80;8.10;96702.00;;;;5035106;28;20197;-80
2022/04/18 00:58:55;;;;;;;2.40;2.20;;;8.00;56.90;8.10;96700.00;;;;5034535;28;20201;-81
2022/04/18 01:01:23;;;;;;;3.53;2.23;;;8.00;56.90;8.10;96703.00;;;;5035163;28;20197;-80
2022/04/18 01:03:51;;;;;;;2.50;2.00;;;8.00;57.00;8.10;96697.00;;;;5054748;28;20250;-82
2022/04/18 01:06:19;;;;;;;3.57;2.20;;;8.00;57.00;8.10;96691.00;;;;5054791;28;20279;-82
2022/04/18 01:08:48;;;;;;;2.53;2.33;;;8.00;57.10;8.10;96699.00;;;;5054387;28;20193;-82
2022/04/18 01:11:16;;;;;;;2.40;2.20;;;8.00;57.10;8.10;96690.00;;;;5041025;28;20259;-82
2022/04/18 01:13:45;;;;;;;2.33;2.13;;;8.00;57.20;8.10;96694.00;;;;5034583;28;20224;-82
2022/04/18 01:16:13;;;;;;;2.00;1.90;;;8.00;57.20;8.10;96693.00;;;;5034577;28;20300;-82
2022/04/18 01:18:41;;;;;;;2.27;2.07;;;8.00;57.30;8.00;96686.00;;;;5035006;28;20197;-83
2022/04/18 01:21:10;;;;;;;2.10;1.80;;;8.00;57.30;8.00;96682.00;;;;5035600;28;20610;-82
2022/04/18 01:23:37;;;;;;;3.60;2.27;;;7.90;57.40;8.00;96686.00;;;;5036439;28;20252;-82
2022/04/18 01:28:59;;;;;;;2.10;1.90;;;7.90;57.50;8.00;96676.00;;;;5036050;28;20276;-82
2022/04/18 01:31:27;;;;;;;3.43;2.03;;;7.90;58.00;8.00;96673.00;;;;5035998;28;20246;-82
2022/04/18 01:33:54;;;;;;;2.20;2.10;;;7.90;57.50;7.90;96674.00;;;;5046415;28;20232;-82
2022/04/18 01:36:22;;;;;;;5.03;2.07;;;7.90;57.50;7.90;96672.00;;;;5054308;28;20200;-82
2022/04/18 01:38:49;;;;;;;2.30;2.10;;;7.90;57.60;7.90;96666.00;;;;5054332;28;20199;-82
2022/04/18 01:41:17;;;;;;;2.00;1.90;;;7.90;57.60;7.90;96662.00;;;;5054367;28;20664;-83
2022/04/18 01:43:44;;;;;;;2.30;2.10;;;7.90;57.70;7.90;96660.00;;;;5055223;28;20220;-82
2022/04/18 01:46:11;;;;;;;2.50;1.80;;;7.80;57.60;7.90;96662.00;;;;5055242;28;20220;-82
2022/04/18 01:48:38;;;;;;;2.20;2.00;;;7.80;57.60;7.90;96655.00;;;;5054689;28;20196;-82
2022/04/18 01:51:05;;;;;;;2.03;1.83;;;7.80;57.50;7.90;96659.00;;;;5055440;28;20193;-82
2022/04/18 01:53:34;;;;;;;2.40;2.20;;;7.80;57.50;7.80;96657.00;;;;5053496;28;20224;-82
2022/04/18 01:56:01;;;;;;;2.60;1.90;;;7.80;57.60;7.80;96652.00;;;;5049263;28;20201;-82
2022/04/18 01:58:28;;;;;;;2.13;1.90;;;7.80;57.60;7.80;96653.00;;;;5045980;28;20193;-82
2022/04/18 02:00:55;;;;;;;2.43;2.23;;;7.80;57.60;7.80;96652.00;;;;5053035;28;20199;-82
2022/04/18 02:03:22;;;;;;;2.33;2.10;;;7.70;57.60;7.80;96647.00;;;;5051482;28;20607;-82
2022/04/18 02:05:52;;;;;;;4.47;2.40;;;7.70;57.60;7.70;96640.00;;;;5033580;28;20228;-82
2022/04/18 02:08:20;;;;;;;2.43;1.93;;;7.70;57.70;7.70;96636.00;;;;5035366;28;20682;-82
2022/04/18 02:10:49;;;;;;;3.10;2.00;;;7.60;57.70;7.70;96640.00;;;;5053320;28;20243;-82
2022/04/18 02:13:16;;;;;;;2.17;1.97;;;7.60;57.70;7.70;96635.00;;;;5053805;28;20220;-82
2022/04/18 02:15:43;;;;;;;2.33;1.80;;;7.60;57.70;7.70;96633.00;;;;5053620;28;20575;-82
2022/04/18 02:18:10;;;;;;;2.40;2.00;;;7.60;57.80;7.70;96639.00;;;;5052997;28;20204;-83
2022/04/18 02:20:38;;;;;;;2.00;1.80;;;7.60;57.80;7.60;96621.00;;;;5053417;28;20200;-82
2022/04/18 02:23:06;;;;;;;2.77;2.10;;;7.60;57.80;7.60;96633.00;;;;5051840;28;20216;-83
2022/04/18 02:25:34;;;;;;;2.10;2.00;;;7.50;57.80;7.60;96625.00;;;;5053486;28;20227;-82
2022/04/18 02:28:02;;;;;;;2.03;1.83;;;7.50;57.70;7.60;96625.00;;;;5053434;28;20201;-82
2022/04/18 02:30:29;;;;;;;1.77;1.67;;;7.50;57.90;7.50;96627.00;;;;5053966;28;20209;-82
2022/04/18 02:32:56;;;;;;;1.70;1.60;;;7.40;57.80;7.50;96629.00;;;;5053893;28;20212;-82
2022/04/18 02:35:25;;;;;;;3.17;2.07;;;7.50;57.90;7.50;96627.00;;;;5053597;28;20223;-82
2022/04/18 02:37:53;;;;;;;2.97;1.80;;;7.40;57.90;7.50;96624.00;;;;5053024;28;20214;-82
2022/04/18 02:40:22;;;;;;;2.10;1.90;;;7.40;57.90;7.40;96623.00;;;;5053527;28;20217;-82
2022/04/18 02:42:49;;;;;;;2.47;2.27;;;7.30;57.90;7.40;96603.00;;;;5053571;28;20196;-82
2022/04/18 02:45:19;;;;;;;1.87;1.77;;;7.30;57.90;7.30;96609.00;;;;5053452;28;20256;-82
2022/04/18 02:47:47;;;;;;;2.40;2.20;;;7.30;58.00;7.30;96609.00;;;;5053458;28;20196;-82
2022/04/18 02:50:15;;;;;;;1.97;1.87;;;7.30;58.00;7.30;96610.00;;;;5053220;28;20706;-82
2022/04/18 02:52:42;;;;;;;2.27;2.00;;;7.30;58.10;7.20;96604.00;;;;5053112;28;20205;-82
2022/04/18 02:55:11;;;;;;;2.13;1.97;;;7.20;58.10;7.20;96601.00;;;;5052947;28;20584;-82
2022/04/18 02:57:40;;;;;;;2.20;2.00;;;7.20;58.10;7.20;96600.00;;;;5060161;28;20204;-82
2022/04/18 03:00:09;;;;;;;2.40;2.03;;;7.10;58.10;7.20;96597.00;;;;5064122;28;20204;-82
2022/04/18 03:02:39;;;;;;;2.77;2.23;;;7.10;58.20;7.10;96598.00;;;;5058921;28;20211;-82
2022/04/18 03:05:09;;;;;;;2.50;2.33;;;7.10;58.20;7.10;96590.00;;;;5047889;28;20218;-82
2022/04/18 03:07:36;;;;;;;2.50;2.20;;;7.10;58.30;7.10;96587.00;;;;5052857;28;20287;-82
2022/04/18 03:10:04;;;;;;;3.37;1.93;;;7.00;58.30;7.10;96590.00;;;;5050899;28;20670;-82
2022/04/18 03:12:31;;;;;;;2.60;2.40;;;7.00;58.20;7.00;96584.00;;;;5053307;28;20296;-82
2022/04/18 03:14:58;;;;;;;2.20;2.10;;;7.00;58.20;7.00;96583.00;;;;5052296;28;20225;-83
2022/04/18 03:17:26;;;;;;;2.10;1.77;;;6.90;58.20;7.00;96584.00;;;;5055934;28;20197;-82
2022/04/18 03:19:55;;;;;;;2.00;1.90;;;6.90;58.30;7.00;96580.00;;;;5062599;28;20207;-82
2022/04/18 03:22:23;;;;;;;2.30;2.10;;;6.90;58.40;7.00;96578.00;;;;5060082;28;20281;-82
2022/04/18 03:24:51;;;;;;;2.23;2.03;;;6.90;58.40;6.90;96580.00;;;;5063805;28;20338;-82
2022/04/18 03:27:20;;;;;;;2.23;2.03;;;6.90;58.50;6.90;96573.00;;;;5064149;28;20284;-82
2022/04/18 03:29:50;;;;;;;2.33;2.10;;;6.80;58.60;6.90;96570.00;;;;5063528;28;20651;-82
2022/04/18 03:32:17;;;;;;;2.03;1.83;;;7.00;58.90;6.90;96564.00;;;;5062613;28;20552;-82
2022/04/18 03:34:44;;;;;;;2.20;2.00;;;6.80;58.80;6.90;96560.00;;;;5063057;28;20275;-82
2022/04/18 03:39:58;;;;;;;2.00;1.80;;;6.80;58.90;6.90;96565.00;;;;5062434;28;20587;-82
2022/04/18 03:42:31;;;;;;;2.00;1.80;;;6.80;58.80;6.80;96566.00;;;;5062634;28;20292;-82
2022/04/18 03:45:00;;;;;;;2.37;1.97;;;6.80;58.90;6.80;96551.00;;;;5060923;28;20238;-82
2022/04/18 03:47:28;;;;;;;2.10;2.00;;;6.80;59.00;6.80;96556.00;;;;5059744;28;20200;-83
2022/04/18 03:49:56;;;;;;;2.47;2.03;;;6.70;59.00;6.80;96558.00;;;;5060629;28;20192;-82
2022/04/18 03:52:25;;;;;;;2.20;2.00;;;6.70;59.00;6.80;96552.00;;;;5061076;28;20196;-82
2022/04/18 03:54:53;;;;;;;2.80;2.27;;;6.70;59.10;6.80;96549.00;;;;5061001;28;20236;-82
2022/04/18 03:57:20;;;;;;;2.50;2.30;;;6.70;59.20;6.70;96551.00;;;;5060303;28;20203;-82
2022/04/18 03:59:48;;;;;;;2.40;2.13;;;6.70;59.30;6.70;96550.00;;;;5060390;28;20207;-82
2022/04/18 04:02:15;;;;;;;3.03;2.03;;;6.70;59.30;6.70;96553.00;;;;5056497;28;20645;-82
2022/04/18 04:04:43;;;;;;;2.10;2.00;;;6.70;59.30;6.70;96557.00;;;;5059606;28;20236;-82
2022/04/18 04:07:10;;;;;;;3.47;2.37;;;6.70;59.40;6.70;96554.00;;;;5060023;28;20221;-82
2022/04/18 04:09:39;;;;;;;2.73;1.90;;;6.70;59.40;6.70;96555.00;;;;5059730;28;20196;-82
2022/04/18 04:12:08;;;;;;;2.20;2.10;;;6.70;59.40;6.70;96552.00;;;;5060412;28;20197;-82
2022/04/18 04:14:35;;;;;;;2.33;2.10;;;6.60;59.20;6.70;96553.00;;;;5061706;28;20221;-82
2022/04/18 04:17:02;;;;;;;2.07;1.93;;;6.60;59.30;6.70;96559.00;;;;5064389;28;20224;-82
2022/04/18 04:19:29;;;;;;;1.93;1.83;;;6.60;59.30;6.70;96560.00;;;;5064407;28;20203;-82
2022/04/18 04:21:56;;;;;;;1.70;1.60;;;6.60;59.20;6.70;96554.00;;;;5064596;28;20231;-82
2022/04/18 04:24:23;;;;;;;3.00;2.10;;;6.60;59.10;6.60;96553.00;;;;5064911;28;20720;-82
2022/04/18 04:26:52;;;;;;;2.93;2.47;;;6.60;59.30;6.60;96551.00;;;;5065410;28;20322;-82
2022/04/18 04:29:19;;;;;;;2.50;2.30;;;6.60;59.30;6.60;96552.00;;;;5064047;28;20205;-82
2022/04/18 04:31:47;;;;;;;2.83;2.37;;;6.60;59.30;6.60;96549.00;;;;5062614;28;20650;-82
2022/04/18 04:34:14;;;;;;;2.50;2.30;;;6.70;59.40;6.60;96543.00;;;;5062286;28;20231;-82
2022/04/18 04:36:42;;;;;;;2.30;2.10;;;6.60;59.40;6.60;96543.00;;;;5062539;28;20211;-82
2022/04/18 04:39:10;;;;;;;2.50;2.30;;;6.60;59.50;6.60;96540.00;;;;5062162;28;20201;-82
2022/04/18 04:41:38;;;;;;;2.37;2.20;;;6.60;59.50;6.60;96541.00;;;;5062574;28;20591;-82
2022/04/18 04:44:07;;;;;;;2.43;2.23;;;6.60;59.50;6.70;96544.00;;;;5062124;28;20231;-82
2022/04/18 04:46:36;;;;;;;2.27;2.00;;;6.60;59.50;6.70;96542.00;;;;5062224;28;20217;-83
2022/04/18 04:49:03;;;;;;;2.30;2.10;;;6.60;59.50;6.70;96544.00;;;;5062308;28;20215;-82
2022/04/18 04:51:30;;;;;;;2.37;2.10;;;6.60;59.40;6.70;96544.00;;;;5061651;28;20201;-82
2022/04/18 04:53:57;;;;;;;2.50;1.97;;;6.60;59.40;6.70;96554.00;;;;5062467;28;20271;-82
2022/04/18 04:56:25;;;;;;;2.10;2.00;;;6.60;59.50;6.70;96550.00;;;;5062515;28;20208;-82
2022/04/18 04:58:53;;;;;;;2.40;2.20;;;6.60;59.60;6.70;96542.00;;;;5062379;28;20197;-82
2022/04/18 05:01:22;;;;;;;2.47;2.27;;;6.60;59.60;6.70;96546.00;;;;5062498;28;20196;-82
2022/04/18 05:03:49;;;;;;;2.47;2.17;;;6.70;59.70;6.80;96553.00;;;;5062190;28;20232;-82
2022/04/18 05:06:16;;;;;;;2.20;2.00;;;6.70;59.70;6.80;96544.00;;;;5061279;28;20216;-82
2022/04/18 05:08:43;;;;;;;2.80;2.20;;;6.70;59.70;6.80;96545.00;;;;5062154;28;20193;-82
2022/04/18 05:11:11;;;;;;;2.57;2.37;;;6.70;59.70;6.90;96550.00;;;;5061858;28;20268;-82
2022/04/18 05:13:38;;;;;;;2.27;2.00;;;6.70;59.80;6.90;96552.00;;;;5061690;28;20656;-82
2022/04/18 05:16:05;;;;;;;2.03;1.93;;;6.80;59.90;6.90;96555.00;;;;5061284;28;20201;-82
2022/04/18 05:18:34;;;;;;;2.70;2.03;;;6.80;59.80;6.90;96560.00;;;;5061323;28;20197;-82
2022/04/18 05:21:01;;;;;;;2.00;1.90;;;6.80;59.70;7.00;96555.00;;;;5060601;28;20200;-82
2022/04/18 05:23:28;;;;;;;2.70;2.40;;;6.80;59.70;7.00;96549.00;;;;5061333;28;20221;-82
2022/04/18 05:25:55;;;;;;;2.33;2.13;;;6.90;59.70;7.10;96552.00;;;;5061089;28;20220;-82
2022/04/18 05:28:22;;;;;;;2.20;1.97;;;6.90;59.70;7.10;96555.00;;;;5060285;28;20203;-82
2022/04/18 05:30:49;;;;;;;2.60;2.40;;;6.90;59.60;7.20;96558.00;;;;5060991;28;20193;-82
2022/04/18 05:33:16;;;;;;;2.03;1.93;;;7.00;59.60;7.20;96562.00;;;;5061792;28;20222;-82
2022/04/18 05:35:45;;;;;;;2.30;2.10;;;7.00;59.60;7.30;96561.00;;;;5061084;28;20204;-82
2022/04/18 05:38:14;;;;;;;2.30;2.10;;;7.10;59.70;7.30;96564.00;;;;5062909;28;20203;-82
2022/04/18 05:40:41;;;;;;;2.47;2.17;;;7.10;59.70;7.40;96565.00;;;;5061820;28;20197;-82
2022/04/18 05:43:09;;;;;;;3.00;2.40;;;7.20;59.60;7.40;96565.00;;;;5061169;28;20247;-82
2022/04/18 05:45:38;;;;;;;1.97;1.87;;;7.20;59.60;7.50;96567.00;;;;5059735;28;20197;-82
2022/04/18 05:48:06;;;;;;;2.07;1.87;;;7.30;59.60;7.60;96565.00;;;;5059769;28;20674;-82
2022/04/18 05:50:33;;;;;;;2.03;1.93;;;7.30;59.40;7.70;96567.00;;;;5059591;28;20736;-82
2022/04/18 05:53:02;;;;;;;2.43;2.17;;;7.40;59.30;7.70;96575.00;;;;5053766;28;20197;-82
2022/04/18 05:55:35;;;;;;;1.90;1.80;;;7.50;59.30;7.80;96569.00;;;;5039852;28;20189;-82
2022/04/18 05:58:04;;;;;;;2.07;1.87;;;7.50;59.30;7.90;96569.00;;;;5040390;28;20271;-82
2022/04/18 06:00:32;;;;;;;2.70;1.80;;;7.60;59.30;8.00;96566.00;;;;5040136;28;20221;-82
2022/04/18 06:02:59;;;;;;;2.10;1.90;;;7.70;59.20;8.10;96570.00;;;;5044287;28;20644;-82
2022/04/18 06:05:26;;;;;;;2.65;2.30;;;7.80;59.20;8.20;96578.00;;;;5058203;28;20197;-82
2022/04/18 06:07:53;;;;;;;3.43;2.17;;;7.80;59.10;8.20;96577.00;;;;5059200;28;20204;-82
2022/04/18 06:10:22;;;;;;;2.80;2.00;;;7.90;59.00;8.30;96579.00;;;;5059368;28;20212;-82
2022/04/18 06:12:49;;;;;;;2.33;2.13;;;8.00;59.00;8.40;96583.00;;;;5058924;28;20196;-82
2022/04/18 06:15:16;;;;;;;3.27;2.03;;;8.10;58.90;8.50;96583.00;;;;5058104;28;20201;-82
2022/04/18 06:17:43;;;;;;;2.37;1.80;;;8.20;58.80;8.60;96575.00;;;;5055015;28;20200;-82
2022/04/18 06:20:10;;;;;;;2.77;2.03;;;8.20;59.20;8.70;96579.00;;;;5053365;28;20205;-82
2022/04/18 06:22:37;;;;;;;2.23;1.97;;;8.30;58.70;8.80;96580.00;;;;5053414;28;20208;-82
2022/04/18 06:25:06;;;;;;;3.73;1.93;;;8.40;58.70;8.80;96570.00;;;;5056934;28;20231;-82
2022/04/18 06:27:34;;;;;;;2.37;2.17;;;8.50;58.50;8.90;96575.00;;;;5054125;28;20220;-82
2022/04/18 06:30:01;;;;;;;2.40;2.20;;;8.50;58.40;9.00;96576.00;;;;5054727;28;20193;-82
2022/04/18 06:32:28;;;;;;;3.43;1.83;;;8.70;58.50;9.10;96578.00;;;;5055022;28;20207;-82
2022/04/18 06:34:55;;;;;;;1.90;1.80;;;8.80;58.50;9.20;96578.00;;;;5054218;28;20280;-82
2022/04/18 06:37:22;;;;;;;2.17;1.93;;;8.80;58.30;9.30;96575.00;;;;5053378;28;20208;-82
2022/04/18 06:39:49;;;;;;;2.40;2.20;;;9.00;58.50;9.40;96578.00;;;;5054747;28;20200;-82
2022/04/18 06:42:16;;;;;;;1.93;1.63;;;9.00;58.50;9.50;96574.00;;;;5054979;28;20200;-82
2022/04/18 06:44:44;;;;;;;3.03;2.37;;;9.00;58.30;9.60;96573.00;;;;5054386;28;20217;-82
2022/04/18 06:47:11;;;;;;;2.37;2.10;;;9.20;58.40;9.70;96578.00;;;;5053469;28;20220;-82
2022/04/18 06:49:39;;;;;;;2.40;2.00;;;9.30;58.30;9.80;96577.00;;;;5056268;28;20201;-82
2022/04/18 06:52:07;;;;;;;2.50;2.30;;;9.40;58.20;9.90;96584.00;;;;5055827;28;20227;-82
2022/04/18 06:54:34;;;;;;;2.30;2.10;;;9.50;58.20;10.00;96581.00;;;;5055030;28;20235;-83
2022/04/18 06:57:00;;;;;;;2.60;2.40;;;9.60;58.20;10.10;96587.00;;;;5055479;28;20207;-82
2022/04/18 06:59:29;;;;;;;4.57;2.00;;;9.70;58.70;10.20;96581.00;;;;5059401;28;20196;-82
2022/04/18 07:01:59;;;;;;;2.20;2.00;;;9.80;58.10;10.30;96586.00;;;;5058836;28;20196;-82
2022/04/18 07:04:27;;;;;;;2.57;2.23;;;9.90;57.90;10.40;96589.00;;;;5071115;22;20254;-84
2022/04/18 07:06:54;;;;;;;1.80;1.70;;;10.00;57.90;10.50;96591.00;;;;5054811;28;20313;-86
2022/04/18 07:09:21;;;;;;;1.97;1.80;;;10.10;57.90;10.70;96596.00;;;;5049796;28;20231;-84
2022/04/18 07:11:48;;;;;;;2.13;1.93;;;10.30;57.80;10.80;96594.00;;;;5038482;28;20246;-85
2022/04/18 07:14:17;;;;;;;1.83;1.73;;;10.40;57.90;11.00;96592.00;;;;5054708;28;20196;-85
2022/04/18 07:16:45;;;;;;;2.10;2.00;;;10.50;58.00;11.20;96588.00;;;;5055041;28;20315;-86
2022/04/18 07:19:13;;;;;;;2.27;1.93;;;10.70;58.50;11.50;96600.00;;;;5048752;28;20280;-86
2022/04/18 07:21:41;;;;;;;2.63;2.43;;;10.90;58.00;11.70;96602.00;;;;5034895;28;20225;-85
2022/04/18 07:24:11;;;;;;;2.10;2.00;;;11.10;58.00;11.90;96592.00;;;;5034950;28;20638;-86
2022/04/18 07:26:39;;;;;;;1.80;1.70;;;11.30;57.90;12.10;96599.00;;;;5034203;28;20271;-85
2022/04/18 07:29:06;;;;;;;1.83;1.67;;;11.50;57.50;12.40;96603.00;;;;5034489;28;20198;-85
2022/04/18 07:31:33;;;;;;;2.00;1.80;;;11.70;57.00;12.60;96610.00;;;;5034189;28;20718;-85
2022/04/18 07:34:00;;;;;;;2.10;1.90;;;11.90;56.90;12.80;96605.00;;;;5034064;28;20202;-85
2022/04/18 07:36:29;;;;;;;1.73;1.63;;;12.10;56.90;13.10;96610.00;;;;5034291;28;20235;-85
2022/04/18 07:38:56;;;;;;;1.57;1.47;;;12.30;56.70;13.30;96615.00;;;;5052221;28;20279;-85
2022/04/18 07:41:25;;;;;;;3.23;1.83;;;12.60;56.50;13.60;96616.00;;;;5054475;28;20567;-85
2022/04/18 07:43:54;;;;;;;1.60;1.50;;;12.80;55.00;13.80;96614.00;;;;5054447;28;20199;-85
2022/04/18 07:46:22;;;;;;;2.17;1.70;;;13.00;55.10;14.00;96612.00;;;;5053719;28;20744;-85
2022/04/18 07:48:52;;;;;;;2.70;2.00;;;13.20;54.80;14.30;96614.00;;;;5054382;28;20728;-85
2022/04/18 07:51:34;;;;;;;1.70;1.60;;;13.40;52.90;14.50;96614.00;;;;5045758;28;20280;-84
2022/04/18 07:54:05;;;;;;;2.20;1.63;;;13.60;53.90;14.80;96615.00;;;;5052359;22;20244;-83
2022/04/18 07:56:33;;;;;;;1.57;1.47;;;13.90;53.60;15.00;96614.00;;;;5043553;28;20572;-82
2022/04/18 07:59:00;;;;;;;1.90;1.80;;;14.10;53.50;15.30;96614.00;;;;5031842;28;20307;-83
2022/04/18 08:01:28;;;;;;;1.60;1.50;;;14.30;53.00;15.50;96619.00;;;;5023526;28;20194;-83
2022/04/18 08:03:56;;;;;;;1.63;1.53;;;14.60;53.00;15.80;96614.00;;;;5030978;28;20213;-83
2022/04/18 08:06:24;;;;;;;1.83;1.47;;;14.80;52.30;16.10;96622.00;;;;5029526;28;20657;-83
2022/04/18 08:08:51;;;;;;;2.27;1.40;;;15.00;52.40;16.30;96618.00;;;;5062501;22;20232;-85
2022/04/18 08:11:20;;;;;;;1.50;1.40;;;15.20;52.30;16.60;96623.00;;;;5050953;28;20200;-84
2022/04/18 08:13:49;;;;;;;1.40;1.30;;;15.50;52.10;16.80;96627.00;;;;5037224;28;20227;-85
2022/04/18 08:16:17;;;;;;;1.20;1.10;;;15.60;51.80;17.00;96629.00;;;;5042484;28;20655;-85
2022/04/18 08:18:45;;;;;;;1.57;1.47;;;15.90;51.50;17.30;96620.00;;;;5029617;28;20210;-85
2022/04/18 08:21:14;;;;;;;1.53;1.43;;;16.10;51.00;17.60;96628.00;;;;5020144;28;20655;-85
2022/04/18 08:23:41;;;;;;;1.70;1.60;;;16.30;50.90;17.80;96638.00;;;;5026134;28;20232;-85
2022/04/18 08:26:09;;;;;;;1.40;1.30;;;16.50;50.00;18.10;96637.00;;;;5034665;28;20207;-85
2022/04/18 08:28:37;;;;;;;1.43;1.20;;;16.70;50.10;18.40;96642.00;;;;5032441;28;20224;-84
2022/04/18 08:31:05;;;;;;;1.60;1.50;;;17.00;49.80;18.60;96640.00;;;;5028521;28;20194;-84
2022/04/18 08:33:33;;;;;;;1.47;1.37;;;17.20;49.60;18.90;96641.00;;;;5025150;28;20198;-88
2022/04/18 08:36:01;;;;;;;1.47;1.37;;;17.40;49.40;19.20;96638.00;;;;5034052;28;20220;-86
2022/04/18 08:38:28;;;;;;;1.30;1.10;;;17.70;48.20;19.60;96645.00;;;;5032616;28;20315;-85
2022/04/18 08:40:58;;;;;;;1.67;1.20;;;17.90;47.00;19.90;96644.00;;;;5013256;28;20609;-86
2022/04/18 08:43:25;;;;;;;1.70;1.60;;;18.20;48.00;20.30;96646.00;;;;5017809;28;20584;-85
2022/04/18 08:45:54;;;;;;;1.00;0.90;;;18.50;47.30;20.80;96645.00;;;;5029775;28;20198;-86
2022/04/18 08:53:58;;;;;;;1.50;1.40;;;19.80;46.50;22.00;96658.00;;;;5021233;28;20253;-85
2022/04/18 08:56:26;;;;;;;1.13;1.00;;;20.20;46.10;22.30;96652.00;;;;5015509;28;20201;-85
2022/04/18 08:58:53;;;;;;;1.40;1.30;;;20.60;45.10;22.50;96660.00;;;;5025650;28;20229;-86
2022/04/18 09:01:21;;;;;;;1.40;1.30;;;21.00;44.60;22.80;96653.00;;;;5035044;28;20193;-86
2022/04/18 09:03:49;;;;;;;1.83;1.33;;;21.30;44.00;23.00;96652.00;;;;5032779;28;20229;-85
2022/04/18 09:06:16;;;;;;;1.50;1.40;;;21.50;43.70;23.30;96651.00;;;;5014212;28;20673;-86
2022/04/18 09:08:46;;;;;;;1.37;1.27;;;21.80;43.20;23.50;96654.00;;;;5013362;28;20234;-85
2022/04/18 09:11:26;;;;;;;1.03;1.00;;;22.00;42.70;23.70;96652.00;;;;5013709;28;20221;-86
2022/04/18 09:13:59;;;;;;;1.73;1.40;;;22.20;42.10;23.90;96648.00;;;;5013728;28;20198;-86
2022/04/18 09:16:31;;;;;;;1.27;1.10;;;22.50;41.80;24.10;96643.00;;;;5022715;28;20192;-86
2022/04/18 09:19:09;;;;;;;1.50;1.30;;;22.70;41.10;24.30;96649.00;;;;5024824;28;20237;-85
2022/04/18 09:21:45;;;;;;;1.30;1.20;;;23.00;40.10;24.60;96655.00;;;;5021439;28;20202;-86
2022/04/18 09:24:32;;;;;;;1.20;1.00;;;23.30;40.40;24.80;96651.00;;;;5045320;28;20302;-86
2022/04/18 09:27:03;;;;;;;0.90;0.90;;;23.70;40.00;25.10;96651.00;;;;5034630;28;20318;-85
2022/04/18 09:29:33;;;;;;;1.20;1.10;;;24.10;39.90;25.30;96648.00;;;;5033317;28;20197;-85
2022/04/18 09:32:02;;;;;;;1.47;1.37;;;24.50;39.40;25.50;96648.00;;;;5033210;28;20685;-86
2022/04/18 09:34:29;;;;;;;1.60;0.90;;;24.90;38.80;25.60;96649.00;;;;5033067;28;20194;-85
2022/04/18 09:37:13;;;;;;;0.90;0.90;;;25.30;37.70;25.80;96658.00;;;;5032462;28;20212;-86
2022/04/18 09:39:43;;;;;;;0.90;0.90;;;25.70;36.60;26.00;96645.00;;;;5033005;28;20189;-86
2022/04/18 09:42:12;;;;;;;1.30;1.00;;;26.00;37.30;26.20;96647.00;;;;5033374;28;20231;-86
2022/04/18 09:44:39;;;;;;;0.90;0.90;;;26.40;36.60;26.30;96646.00;;;;5032647;28;20205;-86
2022/04/18 09:47:08;;;;;;;1.07;0.97;;;26.70;36.00;26.50;96648.00;;;;5032725;28;20702;-85
2022/04/18 09:49:38;;;;;;;0.90;0.90;;;27.00;35.60;26.60;96641.00;;;;5032914;28;20205;-86
2022/04/18 09:52:09;;;;;;;0.77;0.77;;;27.30;34.40;26.70;96644.00;;;;5015760;28;20186;-85
2022/04/18 09:54:36;;;;;;;1.13;0.87;;;27.50;34.50;26.70;96635.00;;;;5032787;28;20558;-86
2022/04/18 09:57:06;;;;;;;0.77;0.77;;;27.70;33.70;26.70;96642.00;;;;5032911;28;20583;-85
2022/04/18 09:59:34;;;;;;;1.08;0.98;;;27.90;33.30;26.70;96638.00;;;;5033159;28;20217;-86
2022/04/18 10:02:01;;;;;;;1.33;1.23;;;28.00;32.80;26.70;96635.00;;;;5033285;28;20197;-86
2022/04/18 10:04:30;;;;;;;1.20;1.15;;;28.00;31.60;26.70;96631.00;;;;5032224;28;20220;-86
2022/04/18 10:06:59;;;;;;;1.10;1.00;;;28.00;31.00;26.50;96633.00;;;;5013457;28;20229;-86
2022/04/18 10:09:26;;;;;;;1.10;1.00;;;28.00;30.80;26.40;96632.00;;;;5012851;28;20201;-86
2022/04/18 10:11:53;;;;;;;0.80;0.80;;;27.90;30.90;26.30;96626.00;;;;5012677;28;20194;-86
2022/04/18 10:14:21;;;;;;;1.30;1.20;;;27.80;31.40;26.20;96630.00;;;;5012908;28;20201;-87
2022/04/18 10:16:48;;;;;;;1.10;0.90;;;27.70;31.20;26.10;96629.00;;;;5013201;28;20652;-87
2022/04/18 10:19:37;;;;;;;1.27;1.17;;;27.60;30.40;26.00;96615.00;;;;5012845;28;20224;-88
2022/04/18 10:22:37;;;;;;;1.03;0.90;;;27.50;29.90;25.90;96623.00;;;;5013091;28;20202;-86
2022/04/18 10:25:23;;;;;;;2.70;1.00;;;27.40;30.40;25.80;96614.00;;;;5014093;28;20202;-87
2022/04/18 10:28:13;;;;;;;0.70;0.70;;;27.30;29.40;25.70;96618.00;;;;5013244;28;20324;-87
2022/04/18 10:30:47;;;;;;;1.00;0.73;;;27.20;29.80;25.60;96615.00;;;;5013131;28;20237;-86
2022/04/18 10:33:17;;;;;;;0.80;0.80;;;27.10;30.30;25.60;96611.00;;;;5016257;28;20194;-87
2022/04/18 10:35:56;;;;;;;0.60;0.60;;;27.00;29.80;25.50;96612.00;;;;5018421;28;20201;-83
2022/04/18 10:38:27;;;;;;;1.10;0.50;;;26.90;29.50;25.40;96606.00;;;;5032563;28;20362;-85
2022/04/18 10:41:14;;;;;;;0.83;0.60;;;26.80;29.80;25.30;96606.00;;;;5019094;28;20216;-85
2022/04/18 10:44:00;;;;;;;0.80;0.80;;;26.70;29.30;25.10;96591.00;;;;5016299;28;20297;-85
2022/04/18 10:46:28;;;;;;;0.70;0.70;;;26.60;27.60;24.90;96596.00;;;;5015996;28;20289;-86
2022/04/18 10:48:56;;;;;;;1.10;0.67;;;26.30;28.90;24.80;96592.00;;;;5015202;28;20313;-86
2022/04/18 10:51:36;;;;;;;0.60;0.60;;;26.00;29.40;24.60;96592.00;;;;5014442;28;20546;-86
2022/04/18 10:54:11;;;;;;;0.80;0.70;;;25.80;28.00;24.40;96594.00;;;;5028294;28;20217;-85
2022/04/18 10:56:54;;;;;;;1.20;0.80;;;25.40;28.90;24.30;96588.00;;;;5034533;28;20207;-86
2022/04/18 10:59:23;;;;;;;0.70;0.70;;;25.10;28.60;24.00;96581.00;;;;5036067;28;20215;-87
2022/04/18 11:01:51;;;;;;;0.70;0.70;;;24.70;28.00;23.70;96580.00;;;;5036143;28;20637;-86
2022/04/18 11:04:19;;;;;;;0.87;0.80;;;24.30;27.80;23.40;96571.00;;;;5021063;28;20210;-86
2022/04/18 11:06:52;;;;;;;0.90;0.90;;;23.90;28.40;23.10;96572.00;;;;5016155;28;20208;-86
2022/04/18 11:09:24;;;;;;;0.67;0.67;;;23.50;28.70;22.80;96571.00;;;;5015740;28;20221;-86
2022/04/18 11:11:56;;;;;;;0.83;0.83;;;23.10;29.30;22.50;96567.00;;;;5016436;28;20202;-85
2022/04/18 11:14:26;;;;;;;0.80;0.80;;;22.70;29.70;22.30;96560.00;;;;5015965;28;20906;-85
2022/04/18 11:16:59;;;;;;;0.80;0.80;;;22.40;30.20;22.10;96555.00;;;;5016340;28;20229;-86
2022/04/18 11:19:29;;;;;;;1.87;0.93;;;22.10;30.70;21.80;96550.00;;;;5018273;28;20280;-86
2022/04/18 11:22:23;;;;;;;1.17;1.07;;;21.90;30.80;21.60;96546.00;;;;5030042;28;20222;-86
2022/04/18 11:25:02;;;;;;;1.00;1.00;;;21.60;30.00;21.30;96548.00;;;;5016228;28;20201;-86